Nashville, Georgia
Current Conditions -  °F | °C
As of 6:58 AM on Wednesday 28 Jan 2015 (Local Time) from KVAD Reporting Station
Clear Clear  
Wind Chill: 29°   Ceiling: Unl
Heat Index: 33°   Visibility: 10mi
Dew Point: 29°   Wind: 5mph
Humidity: 87%   Direction: 350°N
Pressure: 30.19"   Gusts: NA
Location:  31.21°N, 83.25°W
Report Text: KVAD 281158Z AUTO 35004KT 10SM CLR 01/M01 A3019 RMK AO2 SLP227 T00051014 10054 20003 52020 $
Loading
Personal Weather Stations






























Interactive Weather Map New forecast layout! Learn more

10-Day Weather Forecast

Advertisements
Track Severe Weather on mobile